createdAt,value
2022-10-05T00:00:01.389Z,9.85
2022-10-05T00:03:11.941Z,9.86
2022-10-05T00:06:15.312Z,9.85
2022-10-05T00:09:20.830Z,9.84
2022-10-05T00:12:26.336Z,9.85
2022-10-05T00:15:30.187Z,9.80
2022-10-05T00:18:33.990Z,9.82
2022-10-05T00:21:37.966Z,9.80
2022-10-05T00:24:41.141Z,9.81
2022-10-05T00:27:49.855Z,9.81
2022-10-05T00:30:56.346Z,9.86
2022-10-05T00:33:59.817Z,9.90
2022-10-05T00:37:02.821Z,9.98
2022-10-05T00:40:20.711Z,10.05
2022-10-05T00:43:45.177Z,10.15
2022-10-05T00:46:56.779Z,10.32
2022-10-05T00:50:34.521Z,10.37
2022-10-05T00:53:44.707Z,10.32
2022-10-05T00:57:05.524Z,10.23
2022-10-05T01:00:13.016Z,10.18
2022-10-05T01:03:23.504Z,10.23
2022-10-05T01:06:37.216Z,10.27
2022-10-05T01:09:45.102Z,10.30
2022-10-05T01:12:54.901Z,10.42
2022-10-05T01:16:08.343Z,10.47
2022-10-05T01:19:28.676Z,10.42
2022-10-05T01:22:42.617Z,10.32
2022-10-05T01:25:57.577Z,10.27
2022-10-05T01:29:09.899Z,10.19
2022-10-05T01:32:21.130Z,10.31
2022-10-05T01:35:38.313Z,10.26
2022-10-05T01:38:48.880Z,10.23
2022-10-05T01:42:00.603Z,10.18
2022-10-05T01:45:12.147Z,10.16
2022-10-05T01:48:21.673Z,10.22
2022-10-05T01:51:34.920Z,10.26
2022-10-05T01:54:45.294Z,10.21
2022-10-05T01:58:03.948Z,10.16
2022-10-05T02:01:14.374Z,10.18
2022-10-05T02:04:56.534Z,10.15
2022-10-05T02:07:51.646Z,10.29
2022-10-05T02:11:01.024Z,10.16
2022-10-05T02:14:10.641Z,10.09
2022-10-05T02:17:18.764Z,10.15
2022-10-05T02:20:25.969Z,10.06
2022-10-05T02:23:34.586Z,10.12
2022-10-05T02:26:39.996Z,10.13
2022-10-05T02:29:47.625Z,9.99
2022-10-05T02:32:55.552Z,9.88
2022-10-05T02:36:02.544Z,10.11
2022-10-05T02:39:15.899Z,9.99
2022-10-05T02:42:28.042Z,10.01
2022-10-05T02:45:42.979Z,9.99
2022-10-05T02:49:00.493Z,9.95
2022-10-05T02:52:11.094Z,10.02
2022-10-05T02:55:18.919Z,10.10
2022-10-05T02:58:25.599Z,10.08
2022-10-05T03:01:35.449Z,10.04
2022-10-05T03:04:45.182Z,9.69
2022-10-05T03:07:56.008Z,9.76
2022-10-05T03:11:13.750Z,9.76
2022-10-05T03:14:23.810Z,9.65
2022-10-05T03:17:31.724Z,9.65
2022-10-05T03:20:44.183Z,9.69
2022-10-05T03:24:04.383Z,9.65
2022-10-05T03:27:19.056Z,9.60
2022-10-05T03:30:26.506Z,9.54
2022-10-05T03:33:38.138Z,9.75
2022-10-05T03:36:49.263Z,9.64
2022-10-05T03:39:59.080Z,9.59
2022-10-05T03:43:21.537Z,9.64
2022-10-05T03:46:34.425Z,9.65
2022-10-05T03:49:50.908Z,9.61
2022-10-05T03:52:58.906Z,9.61
2022-10-05T03:56:08.762Z,9.57
2022-10-05T03:59:16.690Z,9.58
2022-10-05T04:02:25.699Z,9.56
2022-10-05T04:05:31.676Z,9.61
2022-10-05T04:08:46.806Z,9.58
2022-10-05T04:11:56.253Z,9.67
2022-10-05T04:15:03.660Z,9.73
2022-10-05T04:18:13.227Z,9.77
2022-10-05T04:21:23.913Z,9.86
2022-10-05T04:24:35.904Z,9.85
2022-10-05T04:27:42.959Z,9.69
2022-10-05T04:30:49.589Z,9.90
2022-10-05T04:34:02.060Z,9.75
2022-10-05T04:37:10.159Z,9.70
2022-10-05T04:40:25.002Z,9.65
2022-10-05T04:43:38.599Z,9.63
2022-10-05T04:46:58.564Z,9.56
2022-10-05T04:50:17.397Z,9.54
2022-10-05T04:53:31.043Z,9.57
2022-10-05T04:56:40.240Z,9.33
2022-10-05T05:00:02.821Z,9.30
2022-10-05T05:03:21.965Z,9.38
2022-10-05T05:06:33.922Z,9.42
2022-10-05T05:09:58.885Z,9.52
2022-10-05T05:13:16.551Z,9.47
2022-10-05T05:16:29.980Z,9.34
2022-10-05T05:19:42.934Z,9.38
2022-10-05T05:22:52.131Z,9.47
2022-10-05T05:26:07.005Z,9.55
2022-10-05T05:29:21.504Z,9.58
2022-10-05T05:32:42.226Z,9.44
2022-10-05T05:36:10.327Z,9.55
2022-10-05T05:39:25.470Z,9.61
2022-10-05T05:42:39.116Z,9.67
2022-10-05T05:45:50.143Z,9.71
2022-10-05T05:48:54.666Z,9.67
2022-10-05T05:52:02.097Z,9.54
2022-10-05T05:55:14.220Z,9.60
2022-10-05T05:58:24.419Z,9.66
2022-10-05T06:01:33.843Z,9.73
2022-10-05T06:04:41.321Z,9.55
2022-10-05T06:07:44.053Z,9.34
2022-10-05T06:14:22.099Z,9.51
2022-10-05T06:17:35.737Z,9.50
2022-10-05T06:20:42.546Z,9.44
2022-10-05T06:23:51.143Z,9.38
2022-10-05T06:27:26.081Z,9.36
2022-10-05T06:30:38.435Z,9.37
2022-10-05T06:33:49.979Z,9.37
2022-10-05T06:37:01.555Z,9.44
2022-10-05T06:40:12.180Z,9.73
2022-10-05T06:43:44.789Z,9.69
2022-10-05T06:47:00.151Z,9.69
2022-10-05T06:50:15.580Z,9.75
2022-10-05T06:53:29.540Z,9.73
2022-10-05T06:56:37.762Z,9.78
2022-10-05T06:59:46.997Z,9.78
2022-10-05T07:02:58.320Z,9.90
2022-10-05T07:06:09.890Z,9.91
2022-10-05T07:09:27.595Z,9.91
2022-10-05T07:12:45.043Z,9.86
2022-10-05T07:15:58.263Z,9.77
2022-10-05T07:19:16.461Z,9.72
2022-10-05T07:22:41.992Z,9.76
2022-10-05T07:25:51.395Z,9.86
2022-10-05T07:29:13.409Z,9.96
2022-10-05T07:32:28.777Z,10.02
2022-10-05T07:36:03.523Z,10.01
2022-10-05T07:39:14.086Z,9.86
2022-10-05T07:42:25.903Z,10.11
2022-10-05T07:45:34.060Z,10.08
2022-10-05T07:48:53.612Z,10.24
2022-10-05T07:52:01.396Z,10.30
2022-10-05T07:55:18.162Z,10.48
2022-10-05T07:58:27.612Z,10.48
2022-10-05T08:01:33.367Z,10.55
2022-10-05T08:04:44.224Z,10.48
2022-10-05T08:07:50.499Z,10.59
2022-10-05T08:11:01.422Z,10.72
2022-10-05T08:14:14.825Z,10.78
2022-10-05T08:17:25.661Z,10.79
2022-10-05T08:20:36.452Z,10.95
2022-10-05T08:23:47.029Z,11.03
2022-10-05T08:26:56.407Z,11.25
2022-10-05T08:30:03.021Z,11.31
2022-10-05T08:33:11.717Z,11.32
2022-10-05T08:36:20.584Z,11.31
2022-10-05T08:39:27.260Z,11.36
2022-10-05T08:43:02.732Z,11.59
2022-10-05T08:46:35.741Z,11.69
2022-10-05T08:50:04.101Z,11.99
2022-10-05T08:53:22.342Z,12.06
2022-10-05T08:56:39.034Z,12.10
2022-10-05T09:00:03.866Z,11.96
2022-10-05T09:03:30.934Z,11.88
2022-10-05T09:06:57.263Z,11.94
2022-10-05T09:10:36.189Z,11.99
2022-10-05T09:14:34.204Z,11.96
2022-10-05T09:18:07.700Z,11.97
2022-10-05T09:21:19.307Z,12.11
2022-10-05T09:24:30.299Z,12.23
2022-10-05T09:27:38.982Z,12.45
2022-10-05T09:30:57.698Z,12.54
2022-10-05T09:34:34.946Z,12.80
2022-10-05T09:38:11.748Z,12.86
2022-10-05T09:41:53.066Z,13.06
2022-10-05T09:45:38.420Z,13.15
2022-10-05T09:49:11.426Z,13.38
2022-10-05T09:52:38.176Z,13.61
2022-10-05T09:56:11.421Z,13.82
2022-10-05T09:59:52.775Z,14.01
2022-10-05T10:03:25.878Z,14.12
2022-10-05T10:06:51.294Z,14.48
2022-10-05T10:10:30.330Z,14.70
2022-10-05T10:13:53.882Z,14.95
2022-10-05T10:17:09.505Z,15.23
2022-10-05T10:20:25.376Z,15.50
2022-10-05T10:24:00.078Z,15.83
2022-10-05T10:27:19.061Z,16.15
2022-10-05T10:30:46.649Z,16.45
2022-10-05T10:34:13.081Z,16.77
2022-10-05T10:37:39.145Z,17.08
2022-10-05T10:40:55.685Z,17.43
2022-10-05T10:44:33.555Z,17.78
2022-10-05T10:47:44.807Z,18.06
2022-10-05T10:51:19.184Z,18.28
2022-10-05T10:55:07.125Z,18.37
2022-10-05T10:58:53.829Z,18.48
2022-10-05T11:02:16.727Z,18.56
2022-10-05T11:05:31.482Z,18.85
2022-10-05T11:09:05.159Z,19.04
2022-10-05T11:12:49.619Z,19.16
2022-10-05T11:16:17.218Z,19.32
2022-10-05T11:20:02.614Z,19.48
2022-10-05T11:23:28.144Z,19.66
2022-10-05T11:26:47.439Z,19.84
2022-10-05T11:30:19.207Z,20.02
2022-10-05T11:34:01.459Z,20.11
2022-10-05T11:37:36.306Z,20.17
2022-10-05T11:41:02.278Z,20.25
2022-10-05T11:44:28.110Z,20.34
2022-10-05T11:47:38.530Z,20.44
2022-10-05T11:50:52.673Z,20.51
2022-10-05T11:54:08.018Z,20.59
2022-10-05T11:57:17.600Z,20.68
2022-10-05T12:00:22.804Z,20.74
2022-10-05T12:03:42.698Z,20.81
2022-10-05T12:07:01.089Z,20.90
2022-10-05T12:10:23.588Z,20.96
2022-10-05T12:13:37.693Z,21.00
2022-10-05T12:16:50.241Z,21.06
2022-10-05T12:19:58.960Z,21.09
2022-10-05T12:23:08.083Z,21.18
2022-10-05T12:26:16.532Z,21.25
2022-10-05T12:29:26.575Z,21.30
2022-10-05T12:32:35.607Z,21.35
2022-10-05T12:35:48.663Z,21.41
2022-10-05T12:39:01.711Z,21.47
2022-10-05T12:42:17.232Z,21.53
2022-10-05T12:45:33.473Z,21.54
2022-10-05T12:48:52.590Z,21.61
2022-10-05T12:51:59.453Z,21.63
2022-10-05T12:55:06.774Z,21.70
2022-10-05T12:58:25.394Z,21.73
2022-10-05T13:01:39.073Z,21.77
2022-10-05T13:04:49.123Z,21.79
2022-10-05T13:08:05.880Z,21.80
2022-10-05T13:11:16.123Z,21.83
2022-10-05T13:14:36.708Z,21.88
2022-10-05T13:17:46.494Z,21.90
2022-10-05T13:20:56.539Z,21.92
2022-10-05T13:24:05.860Z,21.92
2022-10-05T13:27:16.249Z,21.93
2022-10-05T13:30:22.196Z,21.94
2022-10-05T13:33:33.919Z,21.85
2022-10-05T13:36:49.798Z,21.80
2022-10-05T13:40:00.561Z,21.78
2022-10-05T13:43:13.140Z,21.75
2022-10-05T13:46:24.938Z,21.75
2022-10-05T13:49:38.510Z,21.75
2022-10-05T13:52:50.736Z,21.68
2022-10-05T13:56:00.331Z,21.69
2022-10-05T13:59:15.505Z,21.71
2022-10-05T14:02:23.857Z,21.72
2022-10-05T14:05:28.118Z,21.70
2022-10-05T14:08:36.933Z,21.66
2022-10-05T14:11:50.491Z,21.68
2022-10-05T14:14:55.354Z,21.66
2022-10-05T14:18:00.210Z,21.65
2022-10-05T14:21:06.851Z,21.72
2022-10-05T14:24:32.274Z,21.74
2022-10-05T14:27:51.632Z,21.76
2022-10-05T14:30:59.999Z,21.79
2022-10-05T14:34:29.240Z,21.82
2022-10-05T14:37:45.284Z,21.84
2022-10-05T14:41:03.710Z,21.85
2022-10-05T14:44:27.446Z,21.76
2022-10-05T14:47:34.263Z,21.72
2022-10-05T14:50:52.640Z,21.68
2022-10-05T14:53:59.454Z,21.66
2022-10-05T14:57:08.039Z,21.67
2022-10-05T15:00:13.180Z,21.69
2022-10-05T15:03:35.575Z,21.67
2022-10-05T15:06:42.401Z,21.69
2022-10-05T15:09:58.752Z,21.67
2022-10-05T15:13:11.602Z,21.65
2022-10-05T15:16:20.481Z,21.60
2022-10-05T15:19:28.401Z,21.51
2022-10-05T15:22:44.568Z,21.37
2022-10-05T15:25:59.873Z,21.25
2022-10-05T15:29:11.008Z,21.17
2022-10-05T15:32:29.007Z,21.11
2022-10-05T15:35:49.967Z,21.06
2022-10-05T15:39:04.882Z,21.04
2022-10-05T15:42:12.884Z,20.98
2022-10-05T15:45:21.796Z,20.94
2022-10-05T15:48:29.507Z,20.94
2022-10-05T15:51:45.120Z,20.91
2022-10-05T15:55:09.027Z,20.87
2022-10-05T15:58:28.717Z,20.84
2022-10-05T16:01:47.171Z,20.76
2022-10-05T16:05:05.829Z,20.71
2022-10-05T16:08:31.662Z,20.61
2022-10-05T16:11:50.400Z,20.48
2022-10-05T16:15:03.793Z,20.31
2022-10-05T16:18:32.640Z,20.18
2022-10-05T16:21:46.026Z,20.05
2022-10-05T16:25:03.759Z,19.93
2022-10-05T16:28:21.009Z,19.80
2022-10-05T16:31:32.382Z,19.68
2022-10-05T16:34:49.660Z,19.55
2022-10-05T16:38:05.699Z,19.41
2022-10-05T16:41:18.017Z,19.26
2022-10-05T16:44:33.924Z,19.11
2022-10-05T16:47:47.887Z,18.85
2022-10-05T16:51:01.426Z,18.49
2022-10-05T16:54:18.480Z,18.53
2022-10-05T16:57:24.607Z,18.35
2022-10-05T17:00:37.504Z,18.21
2022-10-05T17:03:52.171Z,17.98
2022-10-05T17:07:12.484Z,17.98
2022-10-05T17:10:35.857Z,17.86
2022-10-05T17:13:58.004Z,17.73
2022-10-05T17:17:26.214Z,17.54
2022-10-05T17:20:43.142Z,17.42
2022-10-05T17:23:55.149Z,17.31
2022-10-05T17:27:03.485Z,17.22
2022-10-05T17:30:46.421Z,17.06
2022-10-05T17:34:26.235Z,17.00
2022-10-05T17:37:41.815Z,16.91
2022-10-05T17:41:05.823Z,16.82
2022-10-05T17:44:32.612Z,16.79
2022-10-05T17:47:56.804Z,16.80
2022-10-05T17:51:18.230Z,16.66
2022-10-05T17:54:41.224Z,16.59
2022-10-05T17:57:44.083Z,16.46
2022-10-05T18:01:07.150Z,16.28
2022-10-05T18:04:40.374Z,16.28
2022-10-05T18:07:48.161Z,16.27
2022-10-05T18:11:17.382Z,16.17
2022-10-05T18:14:24.481Z,16.19
2022-10-05T18:17:51.265Z,16.01
2022-10-05T18:21:20.795Z,16.01
2022-10-05T18:25:03.768Z,15.88
2022-10-05T18:28:16.578Z,15.88
2022-10-05T18:31:30.606Z,15.82
2022-10-05T18:34:39.488Z,15.73
2022-10-05T18:37:52.221Z,15.65
2022-10-05T18:41:02.666Z,15.57
2022-10-05T18:44:25.199Z,15.49
2022-10-05T18:47:35.391Z,15.48
2022-10-05T18:50:46.444Z,15.34
2022-10-05T18:54:05.685Z,15.36
2022-10-05T18:57:52.880Z,15.28
2022-10-05T19:01:13.555Z,15.25
2022-10-05T19:04:22.536Z,15.23
2022-10-05T19:07:37.760Z,15.15
2022-10-05T19:10:45.069Z,15.13
2022-10-05T19:14:00.881Z,15.04
2022-10-05T19:17:23.095Z,15.04
2022-10-05T19:20:34.074Z,14.99
2022-10-05T19:23:56.320Z,14.98
2022-10-05T19:27:07.776Z,14.94
2022-10-05T19:30:20.981Z,14.87
2022-10-05T19:33:35.781Z,14.83
2022-10-05T19:36:53.662Z,14.78
2022-10-05T19:40:07.252Z,14.75
2022-10-05T19:43:28.207Z,14.69
2022-10-05T19:46:50.330Z,14.65
2022-10-05T19:50:00.416Z,14.57
2022-10-05T19:53:12.308Z,14.60
2022-10-05T19:56:20.548Z,14.55
2022-10-05T19:59:27.175Z,14.57
2022-10-05T20:02:32.650Z,14.53
2022-10-05T20:05:35.568Z,14.49
2022-10-05T20:08:40.372Z,14.37
2022-10-05T20:11:49.997Z,14.43
2022-10-05T20:15:27.659Z,14.39
2022-10-05T20:18:56.808Z,14.36
2022-10-05T20:22:00.535Z,14.34
2022-10-05T20:25:06.257Z,14.31
2022-10-05T20:28:09.004Z,14.28
2022-10-05T20:31:12.433Z,14.28
2022-10-05T20:34:17.981Z,14.26
2022-10-05T20:37:20.794Z,14.25
2022-10-05T20:40:23.501Z,14.22
2022-10-05T20:43:26.270Z,14.21
2022-10-05T20:46:30.951Z,14.17
2022-10-05T20:49:36.635Z,14.12
2022-10-05T20:52:39.769Z,14.10
2022-10-05T20:55:43.352Z,14.08
2022-10-05T20:58:46.050Z,14.06
2022-10-05T21:01:49.312Z,14.06
2022-10-05T21:04:53.830Z,14.04
2022-10-05T21:07:56.751Z,14.01
2022-10-05T21:10:59.441Z,14.09
2022-10-05T21:14:05.567Z,14.03
2022-10-05T21:17:09.431Z,13.98
2022-10-05T21:20:13.968Z,14.01
2022-10-05T21:23:16.679Z,14.03
2022-10-05T21:26:19.796Z,14.07
2022-10-05T21:29:22.785Z,14.09
2022-10-05T21:32:25.563Z,14.06
2022-10-05T21:35:29.595Z,14.08
2022-10-05T21:38:32.636Z,14.06
2022-10-05T21:41:35.383Z,14.06
2022-10-05T21:44:38.345Z,14.08
2022-10-05T21:47:42.058Z,14.08
2022-10-05T21:50:46.465Z,14.09
2022-10-05T21:53:52.885Z,14.15
2022-10-05T21:56:58.353Z,14.20
2022-10-05T22:00:01.524Z,14.26
2022-10-05T22:03:04.469Z,14.26
2022-10-05T22:06:09.139Z,14.23
2022-10-05T22:09:12.235Z,14.18
2022-10-05T22:12:15.599Z,14.08
2022-10-05T22:15:18.915Z,13.98
2022-10-05T22:18:22.043Z,13.91
2022-10-05T22:21:26.785Z,13.87
2022-10-05T22:24:29.922Z,13.88
2022-10-05T22:27:33.766Z,13.82
2022-10-05T22:30:37.008Z,13.78
2022-10-05T22:33:40.488Z,13.71
2022-10-05T22:36:46.100Z,13.68
2022-10-05T22:39:49.217Z,13.62
2022-10-05T22:42:53.463Z,13.49
2022-10-05T22:45:57.001Z,13.47
2022-10-05T22:48:59.981Z,13.56
2022-10-05T22:52:04.413Z,13.52
2022-10-05T22:55:08.066Z,13.47
2022-10-05T22:58:11.122Z,13.41
2022-10-05T23:01:15.426Z,13.40
2022-10-05T23:04:18.202Z,13.35
2022-10-05T23:07:22.271Z,13.33
2022-10-05T23:10:26.104Z,13.32
2022-10-05T23:13:29.331Z,13.29
2022-10-05T23:16:32.132Z,13.24
2022-10-05T23:19:35.199Z,13.24
2022-10-05T23:22:40.128Z,13.21
2022-10-05T23:25:43.108Z,13.17
2022-10-05T23:28:47.431Z,13.14
2022-10-05T23:31:50.688Z,13.11
2022-10-05T23:34:53.339Z,13.08
2022-10-05T23:37:57.409Z,13.07
2022-10-05T23:41:00.468Z,13.05
2022-10-05T23:44:03.165Z,13.03
2022-10-05T23:47:06.053Z,13.02
2022-10-05T23:50:10.041Z,13.00
2022-10-05T23:53:14.187Z,12.99
2022-10-05T23:56:16.910Z,12.95
2022-10-05T23:59:19.933Z,12.93
